Surface/Atmospheric History
02/08/2018 19:45  to  2/9/2018 19:45
Change End Date:
To complete the export process:
1) Select all of the data below
2) Copy the data to the clipboard
3) Open a word processor such as Notepad
4) Paste the data into the word processor
5) Save the file

Date/Time (MST), SfStat, SfTemp, PvtTemp, SubTemp, AirTemp, RH, Dewpoint, AvgWindSpeed, GustWindSpeed, WindDirection, PrecipType, PrecipIntenisity
02/09/2018 19:39, Dry , -4.4 , , 36, -15, 77, -21, 2, 6, SW, None, None
02/09/2018 19:33, Dry , -4.4 , , 36, -15, 77, -20, 4, 6, W, None, None
02/09/2018 19:29, Dry , -4.2 , , 36, -14, 77, -19, 6, 7, W, None, None
02/09/2018 19:18, Dry , -4.2 , , 36, -14, 78, -19, 7, 9, W, None, None
02/09/2018 19:17, Dry , -4.2 , , 36, -14, 78, -19, 8, 10, W, None, None
02/09/2018 19:08, Dry , -4 , , 36, -16, 78, -20, 7, 10, W, None, None
02/09/2018 19:03, Dry , -3.8 , , 36, -16, 77, -21, 6, 8, W, None, None
02/09/2018 18:58, Dry , -3.5 , , 36, -16, 77, -21, 6, 6, W, None, None
02/09/2018 18:48, Dry , -3.1 , , 36, -16, 78, -21, 4, 7, W, None, None
02/09/2018 18:48, Dry , -3.1 , , 36, -16, 78, -21, 4, 7, W, None, None
02/09/2018 18:38, Dry , -2.9 , , 36, -17, 78, -22, 4, 6, W, None, None
02/09/2018 18:33, Dry , -2.9 , , 36, -18, 77, -23, 4, 8, W, None, None
02/09/2018 18:28, Dry , -2.9 , , 36, -20, 76, -25, 7, 8, W, None, None
02/09/2018 18:18, Dry , -2.2 , , 36, -18, 78, -23, 4, 6, SW, None, None
02/09/2018 18:18, Dry , -2.2 , , 36, -18, 78, -23, 4, 6, SW, None, None
02/09/2018 18:08, Dry , -2 , , 36, -19, 76, -25, 6, 7, NW, None, None
02/09/2018 18:02, Dry , -1.3 , , 36, -19, 76, -24, 6, 7, NW, None, None
02/09/2018 17:58, Dry , -1.1 , , 36, -20, 74, -26, 2, 6, NW, None, None
02/09/2018 17:48, Dry , -0.8 , , 36, -18, 75, -24, 6, 6, NW, None, None
02/09/2018 17:47, Dry , -0.6 , , 36, -18, 75, -23, 6, 6, NW, None, None
02/09/2018 17:38, Dry , 0.7 , , 36, -15, 77, -20, 2, 4, W, None, None
02/09/2018 17:32, Dry , 1.2 , , 36, -15, 76, -21, 3, 4, W, None, None
02/09/2018 17:28, Dry , 1.8 , , 36, -15, 77, -20, 4, 4, W, None, None
02/09/2018 17:18, Dry , 2.5 , , 36, -14, 76, -19, 1, 2, NW, None, None
02/09/2018 17:17, Dry , 2.5 , , 36, -14, 76, -19, 0, 2, NW, None, None
02/09/2018 17:08, Dry , 3.9 , , 36, -14, 77, -19, 1, 7, W, None, None
02/09/2018 17:02, Dry , 4.6 , , 36, -15, 75, -21, 4, 8, W, None, None
02/09/2018 16:58, Dry , 4.8 , , 36, -14, 75, -20, 6, 8, W, None, None
02/09/2018 16:48, Dry , 6.4 , , 36, -14, 75, -20, 9, 9, W, None, None
02/09/2018 16:47, Dry , 6.4 , , 36, -14, 75, -20, 9, 9, W, None, None
02/09/2018 16:38, Dry , 7.9 , , 36, -13, 75, -19, 8, 9, W, None, None
02/09/2018 16:32, Dry , 8.8 , , 36, -12, 75, -18, 7, 7, W, None, None
02/09/2018 16:28, Dry , 9.3 , , 36, -12, 76, -18, 6, 6, W, None, None
02/09/2018 16:18, Dry , 10.2 , , 36, -12, 75, -18, 7, 9, NW, None, None
02/09/2018 16:17, Dry , 10.2 , , 36, -12, 75, -17, 7, 9, NW, None, None
02/09/2018 16:08, Dry , 11.5 , , 36, -11, 76, -17, 7, 8, W, None, None
02/09/2018 16:02, Dry , 12.4 , , 36, -11, 76, -17, 6, 7, W, None, None
02/09/2018 15:58, Dry , 12.7 , , 36, -12, 75, -17, 6, 9, NW, None, None
02/09/2018 15:48, Dry , 13.8 , , 36, -10, 76, -16, 7, 9, W, None, None
02/09/2018 15:47, Dry , 13.8 , , 36, -10, 76, -16, 7, 9, W, None, None
02/09/2018 15:38, Dry , 14.9 , , 36, -11, 76, -16, 4, 6, W, None, None
02/09/2018 15:32, Dry , 15.3 , , 36, -11, 76, -16, 4, 7, NW, None, None
02/09/2018 15:27, Dry , 15.3 , , 36, -11, 76, -17, 6, 8, NW, None, None
02/09/2018 15:17, Dry , 16.2 , , 36, -10, 76, -16, 7, 8, NW, None, None
02/09/2018 15:17, Dry , 16.2 , , 36, -10, 76, -16, 7, 8, NW, None, None
02/09/2018 15:07, Dry , 17.4 , , 36, -13, 76, -18, 6, 7, NW, None, None
02/09/2018 15:02, Dry , 17.4 , , 36, -13, 76, -18, 4, 6, NW, None, None
02/09/2018 14:57, Dry , 17.2 , , 36, -13, 76, -18, 5, 6, NW, None, None
02/09/2018 14:47, Dry , 17.8 , , 36, -12, 75, -18, 6, 9, NW, None, None
02/09/2018 14:47, Dry , 17.8 , , 36, -12, 75, -18, 6, 9, NW, None, None
02/09/2018 14:37, Dry , 18.9 , , 36, -10, 76, -16, 6, 9, W, None, None
02/09/2018 14:32, Dry , 19.2 , , 36, -10, 75, -16, 6, 9, SW, None, None
02/09/2018 14:27, Dry , 19.8 , , 36, -9, 77, -15, 5, 6, W, None, None
02/09/2018 14:17, Dry , 19.8 , , 36, -11, 76, -16, 6, 7, SW, None, None
02/09/2018 14:17, Dry , 20.1 , , 36, -11, 76, -16, 6, 7, SW, None, None
02/09/2018 14:07, Dry , 19.8 , , 36, -11, 76, -17, 5, 7, SW, None, None
02/09/2018 14:02, Dry , 19.8 , , 36, -12, 76, -17, 6, 7, SW, None, None
02/09/2018 13:57, Dry , 19.6 , , 36, -12, 76, -18, 5, 6, SW, None, None
02/09/2018 13:47, Dry , 19.6 , , 36, -13, 75, -18, 5, 6, S, None, None
02/09/2018 13:47, Dry , 19.4 , , 36, -13, 75, -18, 5, 6, S, None, None
02/09/2018 13:37, Dry , 18.5 , , 36, -12, 75, -18, 5, 9, S, None, None
02/09/2018 13:32, Dry , 18.3 , , 36, -10, 76, -16, 6, 10, SW, None, None
02/09/2018 13:27, Dry , 16.9 , , 36, -11, 77, -16, 9, 11, W, None, None
02/09/2018 13:17, Dry , 16.7 , , 36, -12, 76, -18, 9, 9, NW, None, None
02/09/2018 13:17, Dry , 16.7 , , 36, -12, 76, -18, 9, 9, NW, None, None
02/09/2018 13:07, Dry , 16.9 , , 36, -12, 75, -18, 8, 9, NW, None, None
02/09/2018 13:02, Dry , 17.2 , , 36, -12, 76, -18, 7, 9, NW, None, None
02/09/2018 12:57, Dry , 17.4 , , 36, -12, 75, -18, 7, 9, NW, None, None
02/09/2018 12:47, Dry , 16.5 , , 36, -14, 75, -19, 7, 10, NW, None, None
02/09/2018 12:47, Dry , 16.2 , , 36, -14, 75, -19, 7, 10, NW, None, None
02/09/2018 12:37, Dry , 15.3 , , 36, -14, 75, -20, 8, 9, NW, None, None
02/09/2018 12:32, Dry , 16.3 , , 36, -14, 75, -19, 7, 9, NW, None, None
02/09/2018 12:27, Dry , 16.2 , , 36, -14, 75, -19, 7, 10, NW, None, None
02/09/2018 12:17, Dry , 16.2 , , 36, -14, 75, -20, 9, 11, NW, None, None
02/09/2018 12:17, Dry , 16 , , 36, -14, 75, -20, 9, 11, NW, None, None
02/09/2018 12:07, Dry , 14.9 , , 36, -15, 75, -21, 7, 9, NW, None, None
02/09/2018 12:02, Dry , 14.4 , , 36, -16, 74, -22, 7, 9, NW, None, None
02/09/2018 11:57, Dry , 14.2 , , 36, -16, 74, -21, 8, 9, NW, None, None
02/09/2018 11:47, Dry , 13.8 , , 36, -15, 74, -21, 7, 11, NW, None, None
02/09/2018 11:47, Dry , 13.8 , , 36, -15, 74, -21, 7, 11, NW, None, None
02/09/2018 11:37, Dry , 13.6 , , 36, -15, 74, -21, 9, 10, NW, None, None
02/09/2018 11:32, Dry , 14.2 , , 36, -15, 75, -21, 7, 9, NW, None, None
02/09/2018 11:27, Dry , 15.1 , , 36, -16, 75, -22, 4, 5, NW, None, None
02/09/2018 11:17, Dry , 14.2 , , 36, -18, 74, -24, 3, 5, W, None, None
02/09/2018 11:17, Dry , 14 , , 36, -18, 74, -24, 2, 5, SW, None, None
02/09/2018 11:07, Dry , 12.6 , , 36, -19, 73, -25, 4, 4, SW, None, None
02/09/2018 11:02, Dry , 12 , , 36, -20, 73, -26, 2, 6, W, None, None
02/09/2018 10:56, Dry , 11.1 , , 36, -20, 73, -26, 4, 6, SW, None, None
02/09/2018 10:47, Dry , 10.6 , , 36, -19, 74, -24, 1, 2, W, None, None
02/09/2018 10:46, Dry , 10.2 , , 36, -19, 74, -24, 0, 4, W, None, None
02/09/2018 10:36, Dry , 8.4 , , 36, -22, 72, -28, 3, 4, SW, None, None
02/09/2018 10:32, Dry , 8.1 , , 36, -22, 73, -28, 3, 4, W, None, None
02/09/2018 10:26, Dry , 7.3 , , 36, -22, 73, -28, 2, 3, SW, None, None
02/09/2018 10:17, Dry , 5.9 , , 36, -23, 72, -29, 2, 4, W, None, None
02/09/2018 10:16, Dry , 6.1 , , 36, -23, 72, -29, 2, 4, W, None, None
02/09/2018 10:06, Dry , 4.1 , , 36, -24, 71, -30, 3, 4, W, None, None
02/09/2018 10:02, Dry , 3.6 , , 36, -24, 71, -30, 3, 4, W, None, None
02/09/2018 09:56, Dry , 2.5 , , 36, -23, 71, -30, 0, 2, NW, None, None
02/09/2018 09:47, Dry , -0.2 , , 36, -23, 71, -30, 0, 2, W, None, None
02/09/2018 09:46, Dry , -0.6 , , 36, -23, 71, -29, 0, 2, W, None, None
02/09/2018 09:36, Dry , 0.7 , , 36, -24, 72, -30, 2, 3, NW, None, None
02/09/2018 09:32, Dry , 0.3 , , 36, -25, 71, -31, 0, 3, NW, None, None
02/09/2018 09:26, Dry , -0.8 , , 36, -24, 72, -30, 2, 3, NW, None, None
02/09/2018 09:17, Dry , -2.4 , , 36, -24, 72, -30, 1, 7, NW, None, None
02/09/2018 09:16, Dry , -2.6 , , 36, -25, 72, -30, 2, 7, NW, None, None
02/09/2018 09:06, Dry , -3.6 , , 36, -25, 72, -32, 6, 6, NW, None, None
02/09/2018 09:02, Dry , -4.2 , , 36, -26, 72, -32, 6, 6, NW, None, None
02/09/2018 08:56, Dry , -4.7 , , 36, -25, 73, -30, 3, 5, NW, None, None
02/09/2018 08:47, Dry , -6 , , 36, -26, 72, -32, 2, 6, NW, None, None
02/09/2018 08:46, Dry , -6 , , 36, -26, 72, -32, 4, 6, NW, None, None
02/09/2018 08:36, Dry , -7.1 , , 36, -26, 72, -32, 1, 5, NW, None, None
02/09/2018 08:32, Dry , -7.4 , , 36, -26, 73, -32, 4, 5, NW, None, None
02/09/2018 08:26, Dry , -8.7 , , 36, -27, 72, -33, 3, 4, W, None, None
02/09/2018 08:17, Dry , -9 , , 36, -27, 72, -33, 3, 4, W, None, None
02/09/2018 08:16, Dry , -9.2 , , 36, -27, 72, -33, 2, 3, W, None, None
02/09/2018 08:06, Dry , -9.9 , , 36, -27, 72, -33, 2, 4, W, None, None
02/09/2018 08:02, Dry , -10.3 , , 36, -27, 72, -33, 1, 4, W, None, None
02/09/2018 07:56, Dry , -10.7 , , 36, -26, 73, -32, 2, 3, W, None, None
02/09/2018 07:47, Dry , -11 , , 36, -27, 73, -33, 2, 4, W, None, None
02/09/2018 07:46, Dry , -11 , , 36, -27, 73, -33, 2, 4, W, None, None
02/09/2018 07:36, Dry , -11.2 , , 36, -27, 73, -33, 3, 4, NW, None, None
02/09/2018 07:32, Dry , -11.2 , , 36, -27, 73, -33, 3, 6, W, None, None
02/09/2018 07:26, Dry , -11.2 , , 36, -27, 73, -33, 4, 6, W, None, None
02/09/2018 07:17, Dry , -11.2 , , 36, -29, 72, -35, 4, 6, NW, None, None
02/09/2018 07:16, Dry , -11.2 , , 36, -29, 72, -36, 5, 6, NW, None, None
02/09/2018 07:06, Dry , -10.8 , , 36, -28, 73, -34, 4, 5, NW, None, None
02/09/2018 07:02, Dry , -10.7 , , 36, -27, 73, -33, 4, 5, NW, None, None
02/09/2018 06:56, Dry , -10.7 , , 36, -28, 72, -34, 4, 5, W, None, None
02/09/2018 06:47, Dry , -10.3 , , 36, -27, 72, -33, 4, 4, NW, Yes,
02/09/2018 06:46, Dry , -10.3 , , 36, -27, 72, -33, 3, 4, NW, None, None
02/09/2018 06:36, Dry , -10.1 , , 36, -26, 73, -32, 4, 6, NW, None, None
02/09/2018 06:33, Dry , -10.1 , , 36, -27, 72, -33, 1, 5, W, None, None
02/09/2018 06:25, Dry , -9.9 , , 36, -27, 72, -33, 4, 6, NW, None, None
02/09/2018 06:18, Dry , -9.9 , , 36, -26, 73, -32, 4, 6, NW, None, None
02/09/2018 06:15, Dry , -9.9 , , 36, -26, 73, -32, 3, 5, NW, None, None
02/09/2018 06:05, Dry , -9.8 , , 36, -27, 72, -33, 3, 4, NW, None, None
02/09/2018 06:03, Dry , -9.8 , , 36, -26, 73, -32, 3, 4, NW, None, None
02/09/2018 05:55, Dry , -9.4 , , 36, -25, 73, -31, 4, 4, NW, None, None
02/09/2018 05:48, Dry , -9.2 , , 36, -25, 73, -31, 1, 4, NW, None, None
02/09/2018 05:45, Dry , -9.2 , , 36, -25, 73, -31, 2, 4, NW, None, None
02/09/2018 05:35, Dry , -9.2 , , 36, -25, 73, -31, 2, 4, NW, None, None
02/09/2018 05:33, Dry , -9 , , 36, -25, 73, -30, 3, 4, NW, None, None
02/09/2018 05:25, Dry , -8.9 , , 36, -25, 73, -30, 4, 6, NW, None, None
02/09/2018 05:17, Dry , -8.9 , , 36, -24, 74, -29, 4, 6, NW, None, None
02/09/2018 05:15, Dry , -8.7 , , 36, -24, 73, -30, 4, 6, NW, None, None
02/09/2018 05:05, Dry , -8.7 , , 36, -24, 74, -29, 5, 6, NW, None, None
02/09/2018 05:03, Dry , -8.5 , , 36, -24, 74, -29, 3, 6, NW, None, None
02/09/2018 04:55, Dry , -8.5 , , 36, -24, 73, -30, 4, 7, NW, None, None
02/09/2018 04:48, Dry , -8.5 , , 36, -24, 73, -30, 6, 8, NW, Yes,
02/09/2018 04:45, Dry , -8.5 , , 36, -23, 74, -29, 7, 10, NW, None, None
02/09/2018 04:35, Dry , -8.3 , , 36, -22, 75, -27, 9, 11, NW, None, None
02/09/2018 04:33, Dry , -8.3 , , 36, -22, 75, -27, 10, 11, NW, None, None
02/09/2018 04:25, Dry , -7.8 , , 36, -22, 75, -28, 9, 10, NW, None, None
02/09/2018 04:18, Dry , -7.4 , , 36, -23, 74, -28, 9, 10, NW, None, None
02/09/2018 04:15, Dry , -7.4 , , 36, -23, 74, -29, 7, 9, NW, None, None
02/09/2018 04:05, Dry , -7.1 , , 36, -23, 74, -28, 3, 5, NW, None, None
02/09/2018 04:03, Dry , -7.1 , , 36, -23, 74, -28, 2, 5, NW, None, None
02/09/2018 03:55, Dry , -6.9 , , 36, -23, 74, -28, 3, 4, NW, None, None
02/09/2018 03:51, Dry , -6.5 , , 36, -21, 75, -27, 1, 4, W, None, None
02/09/2018 03:45, Dry , -6.5 , , 36, -21, 75, -26, 2, 4, W, None, None
02/09/2018 03:35, Dry , -6.3 , , 36, -20, 76, -25, 4, 6, W, None, None
02/09/2018 03:33, Dry , -6.3 , , 36, -20, 76, -25, 4, 5, SW, None, None
02/09/2018 03:25, Dry , -6 , , 36, -20, 76, -25, 2, 4, W, None, None
02/09/2018 03:18, Dry , -6.2 , , 36, -20, 76, -25, 2, 6, NW, None, None
02/09/2018 03:15, Dry , -6.2 , , 36, -21, 75, -27, 3, 6, NW, None, None
02/09/2018 03:05, Dry , -5.8 , , 36, -22, 74, -28, 6, 6, NW, None, None
02/09/2018 03:03, Dry , -5.8 , , 36, -21, 75, -26, 6, 6, NW, None, None
02/09/2018 02:55, Dry , -5.4 , , 36, -19, 76, -24, 4, 4, NW, None, None
02/09/2018 02:48, Dry , -5.4 , , 36, -19, 77, -24, 1, 3, W, None, None
02/09/2018 02:45, Dry , -5.3 , , 36, -19, 76, -24, 2, 3, W, None, None
02/09/2018 02:35, Dry , -5.3 , , 36, -18, 77, -23, 1, 3, NW, None, None
02/09/2018 02:33, Dry , -5.3 , , 36, -18, 77, -23, 1, 3, SW, None, None
02/09/2018 02:25, Dry , -5.3 , , 36, -18, 77, -23, 2, 3, NW, None, None
02/09/2018 02:17, Dry , -5.3 , , 36, -19, 76, -25, 0, 2, NW, None, None
02/09/2018 02:15, Dry , -5.1 , , 36, -19, 76, -24, 0, 2, NW, None, None
02/09/2018 02:05, Dry , -4.7 , , 36, -18, 77, -23, 1, 5, W, None, None
02/09/2018 02:03, Dry , -4.7 , , 36, -18, 77, -23, 2, 5, SW, None, None
02/09/2018 01:55, Dry , -4.5 , , 36, -18, 77, -23, 2, 7, W, None, None
02/09/2018 01:49, Dry , -4.5 , , 36, -16, 79, -21, 6, 7, NW, None, None
02/09/2018 01:44, Dry , -4.5 , , 36, -17, 78, -22, 4, 6, NW, None, None
02/09/2018 01:34, Dry , -4.5 , , 36, -17, 77, -22, 4, 5, NW, None, None
02/09/2018 01:33, Dry , -4.5 , , 36, -17, 77, -22, 3, 5, NW, None, None
02/09/2018 01:24, Dry , -4.5 , , 36, -17, 77, -22, 3, 4, NW, None, None
02/09/2018 01:18, Dry , -4.7 , , 36, -17, 78, -22, 3, 5, W, None, None
02/09/2018 01:14, Dry , -4.4 , , 36, -17, 78, -22, 4, 5, NW, None, None
02/09/2018 01:04, Dry , -4.5 , , 36, -17, 78, -21, 2, 5, N, None, None
02/09/2018 01:03, Dry , -4.5 , , 36, -17, 79, -21, 2, 5, N, None, None
02/09/2018 00:54, Dry , -4.2 , , 36, -17, 78, -22, 4, 4, N, None, None
02/09/2018 00:48, Dry , -4.2 , , 36, -17, 77, -22, 2, 3, NW, None, None
02/09/2018 00:44, Dry , -4 , , 36, -17, 78, -22, 2, 2, N, None, None
02/09/2018 00:34, Dry , -4 , , 36, -18, 77, -23, 1, 2, W, None, None
02/09/2018 00:33, Dry , -3.8 , , 36, -17, 77, -22, 1, 3, W, None, None
02/09/2018 00:24, Dry , -3.6 , , 36, -17, 78, -22, 2, 4, NW, None, None
02/09/2018 00:18, Dry , -3.8 , , 36, -17, 77, -22, 2, 3, NW, None, None
02/09/2018 00:14, Dry , -3.5 , , 36, -16, 78, -21, 2, 3, NW, None, None
02/09/2018 00:04, Dry , -3.3 , , 36, -11, 81, -16, 2, 5, N, None, None
02/09/2018 00:03, Dry , -3.3 , , 36, -11, 81, -15, 4, 5, N, None, None
02/08/2018 23:54, Dry , -3.1 , , 36, -11, 81, -15, 4, 4, N, None, None
02/08/2018 23:47, Dry , -2.9 , , 36, -12, 81, -16, 2, 4, N, None, None
02/08/2018 23:44, Dry , -2.9 , , 36, -12, 81, -16, 2, 4, NE, None, None
02/08/2018 23:34, Dry , -2.4 , , 36, -11, 83, -15, 3, 3, NE, None, None
02/08/2018 23:33, Dry , -2.4 , , 36, -12, 82, -16, 3, 3, N, None, None
02/08/2018 23:24, Dry , -2 , , 36, -12, 83, -15, 2, 2, N, None, None
02/08/2018 23:17, Dry , -1.8 , , 36, -13, 80, -18, 0, 2, W, None, None
02/08/2018 23:14, Dry , -2 , , 36, -13, 80, -18, 0, 4, SW, None, None
02/08/2018 23:04, Dry , -1.7 , , 36, -11, 85, -14, 2, 2, SW, None, None
02/08/2018 23:03, Dry , -1.5 , , 36, -11, 86, -14, 2, 2, SW, None, None
02/08/2018 22:54, Dry , -1.5 , , 36, -13, 79, -18, 2, 3, W, None, None
02/08/2018 22:47, Dry , -1.1 , , 36, -11, 82, -15, 3, 4, SW, None, None
02/08/2018 22:44, Dry , -1.1 , , 36, -10, 83, -14, 3, 4, SW, None, None
02/08/2018 22:34, Dry , -0.8 , , 36, -12, 80, -17, 4, 6, SW, None, None
02/08/2018 22:33, Dry , -0.8 , , 36, -14, 78, -18, 4, 6, SW, None, None
02/08/2018 22:24, Dry , -0.2 , , 36, -7, 84, -10, 0, 1, NE, None, None
02/08/2018 22:18, Dry , 0 , , 36, -7, 84, -10, 0, 1, N, None, None
02/08/2018 22:14, Dry , 0.1 , , 36, -7, 84, -11, 0, 1, N, None, None
02/08/2018 22:04, Dry , 0.5 , , 36, -8, 85, -11, 1, 2, N, None, None
02/08/2018 22:03, Dry , 0.5 , , 36, -8, 86, -11, 2, 3, N, None, None
02/08/2018 21:54, Dry , 0.7 , , 36, -10, 82, -14, 3, 3, N, None, None
02/08/2018 21:47, Dry , 1 , , 36, -8, 85, -11, 1, 2, NW, None, None
02/08/2018 21:44, Dry , 1 , , 36, -10, 81, -14, 2, 2, NW, None, None
02/08/2018 21:34, Ice Watch , 1.6 , , 36, -7, 83, -10, 0, 1, W, Yes,
02/08/2018 21:33, Ice Watch , 1.6 , , 36, -7, 83, -10, 0, 1, W, Yes,
02/08/2018 21:24, Ice Watch , 1.8 , , 36, -7, 85, -10, 1, 2, W, None, None
02/08/2018 21:18, Ice Watch , 1.9 , , 36, -7, 85, -10, 2, 3, W, None, None
02/08/2018 21:14, Ice Watch , 1.9 , , 36, -7, 85, -11, 1, 4, W, None, None
02/08/2018 21:04, Ice Watch , 2.3 , , 36, -7, 82, -11, 0, 2, NW, None, None
02/08/2018 21:03, Ice Watch , 2.3 , , 36, -7, 82, -11, 0, 2, NW, None, None
02/08/2018 20:53, Ice Watch , 2.5 , , 36, -7, 84, -10, 0, 2, W, None, None
02/08/2018 20:48, Ice Watch , 2.7 , , 36, -7, 83, -10, 1, 2, W, None, None
02/08/2018 20:43, Ice Watch , 2.8 , , 36, -7, 81, -11, 1, 3, NW, None, None
02/08/2018 20:33, Ice Watch , 3.2 , , 36, -5, 84, -9, 3, 3, N, Yes,
02/08/2018 20:32, Ice Watch , 3.2 , , 36, -5, 84, -9, 2, 3, N, Yes,
02/08/2018 20:23, Ice Watch , 3.4 , , 36, -6, 82, -10, 0, 2, NW, None, None
02/08/2018 20:17, Ice Watch , 3.4 , , 36, -6, 82, -10, 1, 2, N, None, None
02/08/2018 20:13, Ice Watch , 3.4 , , 36, -6, 81, -10, 1, 4, NW, None, None
02/08/2018 20:03, Ice Watch , 3.7 , , 36, -5, 81, -10, 4, 6, N, None, None
02/08/2018 20:03, Ice Watch , 3.7 , , 36, -5, 81, -10, 4, 6, N, None, None
02/08/2018 19:53, Ice Watch , 3.7 , , 36, -6, 78, -11, 6, 7, N, Yes,
02/08/2018 19:48, Ice Watch , 3.9 , , 36, -3, 79, -8, 7, 9, N, None, None
Change End Date:

Copyright © 1998-2015 Vaisala, Inc.
All Rights Reserved
Send comments about the data to:
SCAN Web ® is a registered trademark of Vaisala, Inc.
SCAN Web Version 6.0